Latest Coastal Weather Observations for Warruwi

IDD60701

Issued at 7:41 am CST Saturday 28 March 2015 (issued every 10 minutes, with the page automatically refreshed every 10 minutes)

About coastal observations | Map of coastal stations | Coastal observations for NT | Marine services | Other Formats
Station Details ID: 014401 Name: WARRUWI AIRPORT Lat: -11.65 Lon: 133.38 Height: 19.2 m
Data from the previous 72 hours. | See also: Recent months at Warruwi
Date/Time
CST
Temp

°C
Wind Pressure Rain
since 9am
mm
Weather Cloud Vis
km
Sea
Height
m
Swell
Dir
 
Speed
knots
Gust
knots
hPa Trend Height
m
Period
s
Dir
28/07:30am 26.4 CALM 0 0 1012.7 - 0.2 - - - - - - -
28/07:00am 25.2 CALM 0 0 1012.3 - 0.2 - - - - - - -
28/06:30am 25.2 CALM 0 0 1012.1 - 0.2 - - - - - - -
28/06:00am 25.4 S 2 3 1011.8 - 0.2 - - - - - - -
28/05:30am 25.6 SSW 2 3 1011.8 - 0.2 - - - - - - -
28/05:00am 25.8 SSW 2 2 1011.8 - 0.2 - - - - - - -
28/04:30am 25.7 SSW 2 3 1011.4 - 0.2 - - - - - - -
28/04:00am 25.8 SSW 1 2 1011.3 - 0.2 - - - - - - -
28/03:30am 25.8 SW 2 3 1011.5 - 0.2 - - - - - - -
28/03:00am 26.0 S 1 2 1011.9 - 0.2 - - - - - - -
28/02:30am 26.1 SSW 2 2 1012.1 - 0.2 - - - - - - -
28/02:00am 26.6 SW 2 3 1012.3 - 0.2 - - - - - - -
28/01:30am 26.3 WNW 1 2 1012.3 - 0.2 - - - - - - -
28/01:00am 26.1 NW 2 3 1012.7 - 0.2 - - - - - - -
28/12:30am 25.9 CALM 0 2 1013.2 - 0.2 - - - - - - -
28/12:00am 26.0 NW 1 2 1013.6 - 0.2 - - - - - - -
 
Date/Time
CST
Temp

°C
Wind Pressure Rain
since 9am
mm
Weather Cloud Vis
km
Sea
Height
m
Swell
Dir
 
Speed
knots
Gust
knots
hPa Trend Height
m
Period
s
Dir
27/11:30pm 26.2 CALM 0 0 1013.9 - 0.2 - - - - - - -
27/11:00pm 26.2 CALM 0 0 1014.1 - 0.2 - - - - - - -
27/10:30pm 26.2 CALM 0 0 1014.0 - 0.2 - - - - - - -
27/10:00pm 26.1 WNW 1 1 1013.8 - 0.2 - - - - - - -
27/09:30pm 26.5 CALM 0 1 1013.8 - 0.2 - - - - - - -
27/09:00pm 26.6 NE 1 2 1013.8 - 0.2 - - - - - - -
27/08:30pm 27.0 NE 1 1 1013.7 - 0.2 - - - - - - -
27/08:00pm 27.1 NE 1 2 1013.2 - 0.2 - - - - - - -
27/07:30pm 27.6 NE 1 3 1012.9 - 0.2 - - - - - - -
27/07:00pm 27.9 NE 2 4 1012.1 - 0.2 - - - - - - -
27/06:30pm 28.6 NE 3 4 1011.8 - 0.2 - - - - - - -
27/06:00pm 29.8 NE 3 4 1011.5 - 0.2 - - - - - - -
27/05:30pm 30.5 N 3 4 1011.3 - 0.2 - - - - - - -
27/05:00pm 30.4 E 5 7 1011.0 - 0.2 - - - - - - -
27/04:30pm 31.4 NNE 2 4 1010.8 - 0.2 - - - - - - -
27/04:00pm 31.8 NW 2 4 1010.9 - 0.2 - - - - - - -
27/03:30pm 30.9 W 3 5 1011.2 - 0.2 - - - - - - -
27/03:00pm 30.6 W 5 7 1011.4 - 0.2 - - - - - - -
27/02:30pm 30.7 W 5 8 1011.6 - 0.2 - - - - - - -
27/02:00pm 30.5 W 6 8 1012.2 - 0.2 - - - - - - -
27/01:30pm 30.2 WSW 5 8 1012.8 - 0.2 - - - - - - -
27/01:00pm 29.5 E 5 7 1013.6 - 0.2 - - - - - - -
27/12:30pm 30.1 SE 4 11 1013.8 - 0.2 - - - - - - -
27/12:00pm 30.7 SW 4 9 1013.8 - 0.2 - - - - - - -
27/11:30am 30.6 NW 2 5 1014.3 - 0.2 - - - - - - -
27/11:00am 30.1 S 2 3 1014.9 - 0.2 - - - - - - -
27/10:30am 30.0 SE 2 4 1015.3 - 0.2 - - - - - - -
27/10:00am 28.9 ESE 2 3 1015.6 - 0.2 - - - - - - -
27/09:30am 28.1 SSE 2 3 1015.7 - 0.2 - - - - - - -
27/09:00am 27.5 ESE 1 3 1015.6 - 28.4 - - - - - - -
27/08:30am 27.2 SE 2 3 1015.4 - 28.4 - - - - - - -
27/08:00am 26.8 SSE 2 3 1015.1 - 28.4 - - - - - - -
27/07:30am 26.2 SE 1 2 1014.7 - 28.4 - - - - - - -
27/07:00am 25.8 E 3 4 1014.1 - 28.4 - - - - - - -
27/06:30am 25.6 ESE 2 5 1013.7 - 28.4 - - - - - - -
27/06:00am 25.8 ESE 5 7 1013.4 - 28.4 - - - - - - -
27/05:30am 26.0 SE 5 8 1013.0 - 28.4 - - - - - - -
27/05:00am 26.0 ESE 7 10 1012.9 - 28.4 - - - - - - -
27/04:30am 25.9 ESE 6 10 1012.8 - 28.4 - - - - - - -
27/04:00am 26.0 SE 6 11 1012.9 - 28.4 - - - - - - -
27/03:30am 26.8 ENE 3 5 1013.0 - 28.4 - - - - - - -
27/03:00am 26.8 ENE 4 6 1013.3 - 28.4 - - - - - - -
27/02:30am 26.8 ENE 3 6 1013.7 - 28.4 - - - - - - -
27/02:00am 26.8 NE 3 5 1014.2 - 28.4 - - - - - - -
27/01:30am 26.9 ENE 4 7 1014.6 - 28.4 - - - - - - -
27/01:00am 26.5 ENE 3 5 1014.8 - 28.4 - - - - - - -
27/12:30am 26.5 ENE 2 4 1015.0 - 28.4 - - - - - - -
27/12:00am 26.3 ENE 3 4 1015.3 - 28.4 - - - - - - -
 
Date/Time
CST
Temp

°C
Wind Pressure Rain
since 9am
mm
Weather Cloud Vis
km
Sea
Height
m
Swell
Dir
 
Speed
knots
Gust
knots
hPa Trend Height
m
Period
s
Dir
26/11:30pm 26.7 E 4 7 1015.7 - 28.4 - - - - - - -
26/11:00pm 26.5 ENE 2 3 1015.9 - 28.4 - - - - - - -
26/10:30pm 26.5 ENE 2 3 1015.7 - 28.4 - - - - - - -
26/10:00pm 26.5 ENE 1 3 1015.8 - 28.4 - - - - - - -
26/09:30pm 26.5 ENE 2 3 1015.3 - 28.4 - - - - - - -
26/09:00pm 26.4 ENE 1 2 1015.0 - 28.4 - - - - - - -
26/08:30pm 26.4 NE 1 2 1014.5 - 28.4 - - - - - - -
26/08:00pm 26.4 E 2 2 1014.2 - 28.4 - - - - - - -
26/07:30pm 26.3 ENE 1 2 1013.6 - 28.4 - - - - - - -
26/07:00pm 26.2 ENE 1 3 1013.4 - 28.4 - - - - - - -
26/06:30pm 26.3 NE 3 4 1013.1 - 28.4 - - - - - - -
26/06:00pm 26.4 NE 2 3 1012.8 - 28.4 - - - - - - -
26/05:30pm 26.4 NNE 3 5 1012.5 - 28.4 - - - - - - -
26/05:00pm 26.4 NE 3 5 1012.0 - 28.4 - - - - - - -
26/04:30pm 26.3 NNE 2 4 1011.8 - 28.4 - - - - - - -
26/04:00pm 25.9 NE 4 7 1011.7 - 28.4 - - - - - - -
26/03:30pm 26.0 NE 2 4 1012.0 - 28.4 - - - - - - -
26/03:00pm 25.8 NE 1 2 1012.5 - 28.2 Recent precip. - - - - - -
26/02:30pm 25.6 NE 1 2 1012.7 - 28.2 - - - - - - -
26/02:00pm 25.4 NE 1 4 1013.0 - 26.8 - - - - - - -
26/01:30pm 25.6 ENE 4 6 1013.2 - 26.2 - - - - - - -
26/01:00pm 25.5 ESE 8 17 1013.6 - 24.4 - - - - - - -
26/12:30pm 26.1 E 9 15 1014.0 - 6.2 - - - - - - -
26/12:00pm 27.5 ESE 11 14 1014.0 - 4.8 Recent precip. - - - - - -
26/11:30am 26.4 ESE 10 14 1014.3 - 3.2 - - - - - - -
26/11:00am 28.4 ESE 9 12 1014.7 - 0.2 - - - - - - -
26/10:30am 27.8 ESE 8 13 1014.7 - 0.2 - - - - - - -
26/10:00am 27.7 SE 3 5 1015.0 - 0.2 - - - - - - -
26/09:30am 28.1 E 3 5 1014.9 - 0.2 - - - - - - -
26/09:00am 28.5 ESE 2 3 1014.4 - 26.6 - - - - - - -
26/08:30am 26.5 E 1 2 1013.8 - 26.6 - - - - - - -
26/08:00am 25.9 E 3 5 1013.6 - 26.6 - - - - - - -
26/07:30am 25.1 ENE 3 4 1013.3 - 26.6 - - - - - - -
26/07:00am 25.2 E 2 3 1012.8 - 26.6 - - - - - - -
26/06:30am 25.4 E 5 7 1012.6 - 26.6 - - - - - - -
26/06:00am 24.9 ENE 1 2 1012.3 - 26.6 - - - - - - -
26/05:30am 24.7 ESE 1 3 1012.3 - 26.6 - - - - - - -
26/05:00am 24.3 ENE 1 3 1012.2 - 26.6 - - - - - - -
26/04:30am 24.5 N 3 8 1011.9 - 26.0 - - - - - - -
26/04:00am 25.0 W 5 10 1011.7 - 15.0 - - - - - - -
26/03:30am 25.2 W 3 5 1011.8 - 4.6 - - - - - - -
26/03:00am 25.7 N 1 2 1011.2 - 2.4 Rain - - - - - -
26/02:30am 25.9 NE 3 11 1011.5 - 1.4 - - - - - - -
26/02:00am 26.2 CALM 0 0 1011.5 - 0.2 - - - - - - -
26/01:30am 26.2 CALM 0 0 1011.8 - 0.2 - - - - - - -
26/01:00am 26.5 NE 1 4 1012.1 - 0.2 - - - - - - -
26/12:30am 26.9 NNE 3 5 1012.4 - 0.2 - - - - - - -
26/12:00am 27.2 NNE 3 6 1012.5 - 0.2 - - - - - - -
 
Date/Time
CST
Temp

°C
Wind Pressure Rain
since 9am
mm
Weather Cloud Vis
km
Sea
Height
m
Swell
Dir
 
Speed
knots
Gust
knots
hPa Trend Height
m
Period
s
Dir
25/11:30pm 27.5 ENE 2 3 1012.7 - 0.2 - - - - - - -
25/11:00pm 27.4 NNE 2 4 1012.5 - 0.2 - - - - - - -
25/10:30pm 27.6 NNE 3 5 1012.3 - 0.2 - - - - - - -
25/10:00pm 27.6 NNE 3 5 1012.3 - 0.2 - - - - - - -
25/09:30pm 27.4 NNE 3 5 1012.0 - 0.2 - - - - - - -
25/09:00pm 27.4 ENE 2 3 1011.7 - 0.2 - - - - - - -
25/08:30pm 27.2 NE 1 2 1011.7 - 0.2 - - - - - - -
25/08:00pm 27.3 NE 2 3 1011.5 - 0.2 - - - - - - -
25/07:30pm 27.3 NE 1 3 1011.2 - 0.2 - - - - - - -
25/07:00pm 27.5 NNE 2 4 1010.7 - 0.2 - - - - - - -
25/06:30pm 27.9 NNE 4 6 1010.4 - 0.2 - - - - - - -
25/06:00pm 28.2 NNE 5 9 1009.9 - 0.2 - - - - - - -
25/05:30pm 28.0 N 6 9 1009.7 - 0.2 - - - - - - -
25/05:00pm 28.7 N 6 11 1009.6 - 0.2 - - - - - - -
25/04:30pm 29.2 NNE 6 12 1009.5 - 0.2 - - - - - - -
25/04:00pm 29.3 N 6 12 1009.6 - 0.2 - - - - - - -
25/03:30pm 29.0 N 7 13 1009.4 - 0.2 - - - - - - -
25/03:00pm 30.0 NNE 8 13 1009.3 - 0.2 - - - - - - -
25/02:30pm 30.9 NNE 5 7 1009.4 - 0.2 - - - - - - -
25/02:00pm 30.6 NNE 6 10 1009.6 - 0.2 - - - - - - -
25/01:30pm 31.1 NNE 6 12 1010.0 - 0.2 - - - - - - -
25/01:00pm 30.8 N 5 9 1010.5 - 0.2 - - - - - - -
25/12:30pm 30.4 N 5 8 1011.0 - 0.2 - - - - - - -
25/12:00pm 30.0 NNW 5 9 1011.2 - 0.2 - - - - - - -
25/11:30am 29.9 NNW 5 9 1011.6 - 0.2 - - - - - - -
25/11:00am 29.4 N 6 11 1011.7 - 0.2 - - - - - - -
25/10:30am 28.7 NNW 6 10 1012.0 - 0.2 - - - - - - -
25/10:00am 27.8 N 4 8 1011.9 - 0.0 - - - - - - -
25/09:30am 27.0 N 4 14 1011.8 - 0.0 - - - - - - -
25/09:00am 28.0 N 4 7 1011.6 - 2.4 - - - - - - -
25/08:30am 27.1 N 4 8 1011.1 - 2.4 - - - - - - -
25/08:00am 26.4 N 3 7 1010.9 - 2.4 - - - - - - -

Other Formats:

Comma delimited format used in spreadsheet applications
http://www.bom.gov.au/fwo/IDD60701/IDD60701.94139.axf

JavaScript Object Notation format (JSON) in row-major order
http://www.bom.gov.au/fwo/IDD60701/IDD60701.94139.json